createdAt,value
2023-01-26T00:01:10.812Z,100.00
2023-01-26T00:03:37.794Z,100.00
2023-01-26T00:06:10.268Z,100.00
2023-01-26T00:08:44.947Z,100.00
2023-01-26T00:11:14.497Z,100.00
2023-01-26T00:13:41.721Z,100.00
2023-01-26T00:16:11.021Z,100.00
2023-01-26T00:18:39.103Z,100.00
2023-01-26T00:21:06.778Z,100.00
2023-01-26T00:23:34.876Z,100.00
2023-01-26T00:26:02.270Z,100.00
2023-01-26T00:28:29.361Z,100.00
2023-01-26T00:31:05.719Z,100.00
2023-01-26T00:33:32.640Z,100.00
2023-01-26T00:35:59.222Z,100.00
2023-01-26T00:38:27.185Z,100.00
2023-01-26T00:40:53.737Z,100.00
2023-01-26T00:43:20.732Z,100.00
2023-01-26T00:45:48.338Z,100.00
2023-01-26T00:48:15.179Z,100.00
2023-01-26T00:50:41.721Z,100.00
2023-01-26T00:53:09.926Z,100.00
2023-01-26T00:55:36.737Z,100.00
2023-01-26T00:58:05.596Z,100.00
2023-01-26T01:00:33.832Z,100.00
2023-01-26T01:03:00.464Z,100.00
2023-01-26T01:05:29.292Z,100.00
2023-01-26T01:07:55.958Z,100.00
2023-01-26T01:10:22.830Z,100.00
2023-01-26T01:12:50.056Z,100.00
2023-01-26T01:15:16.751Z,100.00
2023-01-26T01:17:43.264Z,100.00
2023-01-26T01:20:11.822Z,100.00
2023-01-26T01:22:41.031Z,100.00
2023-01-26T01:25:07.887Z,100.00
2023-01-26T01:27:34.424Z,100.00
2023-01-26T01:30:00.969Z,100.00
2023-01-26T01:32:27.463Z,100.00
2023-01-26T01:34:54.043Z,100.00
2023-01-26T01:37:21.245Z,100.00
2023-01-26T01:39:49.243Z,100.00
2023-01-26T01:42:15.781Z,100.00
2023-01-26T01:44:43.178Z,100.00
2023-01-26T01:47:23.166Z,100.00
2023-01-26T01:49:52.586Z,100.00
2023-01-26T01:52:31.438Z,100.00
2023-01-26T01:55:08.906Z,100.00
2023-01-26T01:57:58.936Z,100.00
2023-01-26T02:00:26.719Z,100.00
2023-01-26T02:03:19.038Z,100.00
2023-01-26T02:06:10.737Z,100.00
2023-01-26T02:08:44.715Z,100.00
2023-01-26T02:11:16.502Z,100.00
2023-01-26T02:13:46.191Z,100.00
2023-01-26T02:16:12.898Z,100.00
2023-01-26T02:18:39.425Z,100.00
2023-01-26T02:21:09.707Z,100.00
2023-01-26T02:23:51.077Z,100.00
2023-01-26T02:26:23.541Z,100.00
2023-01-26T02:28:51.463Z,100.00
2023-01-26T02:31:19.231Z,100.00
2023-01-26T02:33:47.486Z,100.00
2023-01-26T02:36:26.498Z,100.00
2023-01-26T02:38:54.338Z,100.00
2023-01-26T02:41:39.442Z,100.00
2023-01-26T02:44:09.959Z,100.00
2023-01-26T02:46:36.680Z,100.00
2023-01-26T02:49:22.294Z,100.00
2023-01-26T02:51:49.072Z,100.00
2023-01-26T02:54:35.852Z,100.00
2023-01-26T02:57:03.545Z,100.00
2023-01-26T02:59:30.191Z,100.00
2023-01-26T03:01:58.215Z,100.00
2023-01-26T03:04:25.093Z,100.00
2023-01-26T03:06:52.353Z,100.00
2023-01-26T03:09:18.887Z,100.00
2023-01-26T03:11:46.886Z,100.00
2023-01-26T03:14:15.006Z,100.00
2023-01-26T03:16:41.829Z,100.00
2023-01-26T03:19:31.809Z,100.00
2023-01-26T03:22:17.876Z,100.00
2023-01-26T03:25:03.075Z,100.00
2023-01-26T03:27:36.425Z,100.00
2023-01-26T03:30:03.367Z,100.00
2023-01-26T03:32:30.715Z,100.00
2023-01-26T03:35:00.420Z,100.00
2023-01-26T03:37:27.088Z,100.00
2023-01-26T03:40:25.262Z,100.00
2023-01-26T03:43:10.507Z,100.00
2023-01-26T03:45:55.757Z,100.00
2023-01-26T03:48:43.645Z,100.00
2023-01-26T03:51:28.801Z,100.00
2023-01-26T03:54:14.853Z,100.00
2023-01-26T03:56:41.479Z,100.00
2023-01-26T03:59:15.352Z,100.00
2023-01-26T04:02:05.196Z,100.00
2023-01-26T04:04:51.708Z,100.00
2023-01-26T04:07:39.929Z,100.00
2023-01-26T04:10:06.823Z,100.00
2023-01-26T04:12:33.738Z,100.00
2023-01-26T04:15:37.517Z,100.00
2023-01-26T04:18:26.904Z,100.00
2023-01-26T04:21:13.096Z,100.00
2023-01-26T04:23:41.870Z,100.00
2023-01-26T04:26:08.689Z,100.00
2023-01-26T04:28:36.015Z,100.00
2023-01-26T04:31:04.641Z,100.00
2023-01-26T04:33:33.284Z,100.00
2023-01-26T04:36:07.690Z,100.00
2023-01-26T04:38:37.162Z,100.00
2023-01-26T04:41:03.914Z,100.00
2023-01-26T04:43:36.380Z,100.00
2023-01-26T04:46:05.940Z,100.00
2023-01-26T04:48:35.092Z,100.00
2023-01-26T04:51:04.980Z,100.00
2023-01-26T04:53:33.396Z,100.00
2023-01-26T04:56:00.377Z,100.00
2023-01-26T04:58:27.099Z,100.00
2023-01-26T05:00:55.616Z,100.00
2023-01-26T05:03:23.556Z,100.00
2023-01-26T05:05:52.424Z,100.00
2023-01-26T05:08:21.729Z,100.00
2023-01-26T05:10:48.619Z,100.00
2023-01-26T05:13:46.392Z,100.00
2023-01-26T05:16:16.705Z,100.00
2023-01-26T05:19:02.027Z,100.00
2023-01-26T05:21:39.765Z,100.00
2023-01-26T05:24:06.901Z,100.00
2023-01-26T05:27:18.123Z,100.00
2023-01-26T05:29:46.909Z,100.00
2023-01-26T05:32:14.181Z,100.00
2023-01-26T05:34:41.204Z,100.00
2023-01-26T05:37:08.690Z,100.00
2023-01-26T05:39:36.483Z,100.00
2023-01-26T05:42:05.241Z,100.00
2023-01-26T05:45:01.114Z,100.00
2023-01-26T05:47:28.695Z,100.00
2023-01-26T05:49:55.249Z,100.00
2023-01-26T05:52:26.501Z,100.00
2023-01-26T05:54:53.381Z,100.00
2023-01-26T05:57:19.918Z,100.00
2023-01-26T06:00:07.946Z,100.00
2023-01-26T06:02:40.683Z,100.00
2023-01-26T06:05:10.851Z,100.00
2023-01-26T06:07:38.118Z,100.00
2023-01-26T06:10:11.842Z,100.00
2023-01-26T06:12:54.955Z,100.00
2023-01-26T06:16:02.988Z,100.00
2023-01-26T06:18:30.753Z,100.00
2023-01-26T06:21:03.170Z,100.00
2023-01-26T06:23:29.875Z,100.00
2023-01-26T06:26:01.987Z,100.00
2023-01-26T06:28:30.913Z,100.00
2023-01-26T06:31:01.621Z,100.00
2023-01-26T06:33:29.467Z,100.00
2023-01-26T06:35:56.600Z,100.00
2023-01-26T06:38:23.441Z,100.00
2023-01-26T06:40:50.626Z,100.00
2023-01-26T06:43:17.183Z,100.00
2023-01-26T06:45:43.801Z,100.00
2023-01-26T06:48:10.638Z,100.00
2023-01-26T06:50:37.461Z,100.00
2023-01-26T06:53:26.049Z,100.00
2023-01-26T06:56:09.199Z,100.00
2023-01-26T06:58:49.648Z,100.00
2023-01-26T07:01:51.397Z,100.00
2023-01-26T07:04:18.673Z,100.00
2023-01-26T07:06:45.488Z,100.00
2023-01-26T07:09:12.144Z,100.00
2023-01-26T07:11:38.688Z,100.00
2023-01-26T07:14:05.482Z,100.00
2023-01-26T07:16:33.824Z,100.00
2023-01-26T07:19:00.736Z,100.00
2023-01-26T07:21:27.377Z,100.00
2023-01-26T07:23:55.622Z,100.00
2023-01-26T07:26:22.316Z,100.00
2023-01-26T07:28:48.979Z,100.00
2023-01-26T07:31:15.699Z,100.00
2023-01-26T07:33:42.437Z,100.00
2023-01-26T07:36:11.015Z,100.00
2023-01-26T07:38:37.752Z,100.00
2023-01-26T07:41:07.503Z,100.00
2023-01-26T07:43:38.497Z,100.00
2023-01-26T07:46:10.569Z,100.00
2023-01-26T07:48:37.235Z,100.00
2023-01-26T07:51:05.224Z,100.00
2023-01-26T07:53:34.143Z,100.00
2023-01-26T07:56:16.084Z,100.00
2023-01-26T07:58:42.893Z,100.00
2023-01-26T08:01:11.916Z,100.00
2023-01-26T08:03:38.829Z,100.00
2023-01-26T08:06:07.050Z,100.00
2023-01-26T08:08:34.530Z,100.00
2023-01-26T08:11:02.192Z,100.00
2023-01-26T08:13:35.927Z,100.00
2023-01-26T08:16:12.806Z,100.00
2023-01-26T08:18:43.872Z,100.00
2023-01-26T08:21:11.898Z,100.00
2023-01-26T08:23:38.489Z,100.00
2023-01-26T08:26:08.543Z,100.00
2023-01-26T08:28:36.782Z,100.00
2023-01-26T08:31:11.457Z,100.00
2023-01-26T08:33:39.471Z,100.00
2023-01-26T08:36:09.284Z,100.00
2023-01-26T08:38:36.169Z,100.00
2023-01-26T08:41:03.390Z,100.00
2023-01-26T08:43:30.415Z,99.37
2023-01-26T08:45:57.844Z,100.00
2023-01-26T08:48:24.693Z,100.00
2023-01-26T08:50:59.232Z,100.00
2023-01-26T08:53:26.724Z,100.00
2023-01-26T08:55:53.261Z,100.00
2023-01-26T08:58:20.656Z,100.00
2023-01-26T09:00:47.338Z,100.00
2023-01-26T09:03:14.094Z,100.00
2023-01-26T09:05:40.798Z,100.00
2023-01-26T09:08:09.411Z,100.00
2023-01-26T09:10:38.527Z,100.00
2023-01-26T09:13:05.756Z,100.00
2023-01-26T09:15:32.339Z,99.50
2023-01-26T09:18:00.879Z,99.60
2023-01-26T09:20:27.901Z,99.48
2023-01-26T09:22:54.733Z,99.28
2023-01-26T09:25:21.311Z,99.25
2023-01-26T09:27:47.847Z,98.45
2023-01-26T09:30:14.886Z,99.18
2023-01-26T09:32:41.480Z,98.79
2023-01-26T09:35:14.163Z,100.00
2023-01-26T09:37:43.131Z,99.33
2023-01-26T09:40:18.393Z,99.86
2023-01-26T09:42:51.043Z,99.88
2023-01-26T09:45:26.989Z,98.63
2023-01-26T09:48:03.411Z,98.61
2023-01-26T09:50:41.808Z,97.30
2023-01-26T09:53:25.871Z,98.61
2023-01-26T09:55:54.077Z,96.03
2023-01-26T09:58:36.123Z,99.64
2023-01-26T10:01:04.334Z,98.24
2023-01-26T10:03:50.437Z,99.64
2023-01-26T10:06:28.471Z,99.68
2023-01-26T10:09:26.692Z,99.22
2023-01-26T10:12:00.592Z,97.56
2023-01-26T10:14:33.524Z,98.95
2023-01-26T10:17:01.704Z,100.00
2023-01-26T10:19:34.376Z,100.00
2023-01-26T10:22:08.173Z,100.00
2023-01-26T10:24:34.990Z,99.19
2023-01-26T10:27:01.580Z,99.46
2023-01-26T10:29:28.131Z,99.56
2023-01-26T10:31:55.470Z,99.33
2023-01-26T10:34:27.510Z,96.88
2023-01-26T10:37:13.345Z,97.11
2023-01-26T10:40:07.564Z,97.10
2023-01-26T10:42:36.168Z,96.74
2023-01-26T10:45:24.156Z,97.98
2023-01-26T10:48:05.818Z,98.15
2023-01-26T10:50:32.970Z,98.58
2023-01-26T10:53:02.160Z,99.44
2023-01-26T10:55:30.309Z,99.68
2023-01-26T10:57:57.623Z,100.00
2023-01-26T11:00:31.413Z,100.00
2023-01-26T11:03:13.368Z,99.10
2023-01-26T11:05:40.083Z,98.23
2023-01-26T11:08:34.625Z,97.88
2023-01-26T11:11:01.557Z,97.91
2023-01-26T11:13:28.058Z,98.22
2023-01-26T11:16:20.224Z,96.56
2023-01-26T11:19:04.554Z,98.59
2023-01-26T11:21:55.312Z,97.88
2023-01-26T11:24:46.655Z,97.24
2023-01-26T11:27:40.002Z,98.27
2023-01-26T11:30:20.929Z,97.33
2023-01-26T11:33:25.304Z,96.98
2023-01-26T11:36:01.196Z,98.03
2023-01-26T11:38:38.216Z,98.58
2023-01-26T11:41:20.106Z,98.75
2023-01-26T11:44:24.287Z,98.67
2023-01-26T11:47:18.834Z,98.64
2023-01-26T11:49:58.981Z,97.62
2023-01-26T11:52:48.686Z,97.26
2023-01-26T11:55:30.204Z,97.24
2023-01-26T11:58:21.102Z,96.68
2023-01-26T12:00:51.894Z,96.88
2023-01-26T12:03:48.035Z,95.48
2023-01-26T12:06:30.472Z,95.61
2023-01-26T12:09:03.153Z,96.42
2023-01-26T12:11:42.294Z,96.21
2023-01-26T12:14:25.898Z,97.64
2023-01-26T12:17:20.288Z,96.54
2023-01-26T12:20:21.210Z,96.34
2023-01-26T12:23:13.001Z,96.36
2023-01-26T12:25:50.676Z,96.56
2023-01-26T12:28:32.859Z,95.27
2023-01-26T12:31:23.869Z,95.34
2023-01-26T12:33:54.583Z,94.94
2023-01-26T12:36:44.881Z,95.35
2023-01-26T12:39:59.441Z,95.48
2023-01-26T12:42:47.740Z,95.16
2023-01-26T12:45:27.503Z,94.86
2023-01-26T12:48:02.292Z,93.39
2023-01-26T12:50:49.481Z,94.87
2023-01-26T12:53:32.267Z,93.63
2023-01-26T12:56:20.465Z,93.32
2023-01-26T12:58:50.040Z,92.53
2023-01-26T13:01:19.930Z,94.09
2023-01-26T13:03:58.717Z,92.13
2023-01-26T13:06:26.891Z,93.21
2023-01-26T13:09:22.649Z,93.37
2023-01-26T13:11:54.980Z,94.10
2023-01-26T13:14:57.889Z,93.08
2023-01-26T13:17:25.615Z,93.07
2023-01-26T13:19:54.517Z,94.18
2023-01-26T13:22:23.928Z,94.44
2023-01-26T13:24:57.415Z,94.84
2023-01-26T13:27:58.260Z,95.01
2023-01-26T13:30:24.771Z,96.07
2023-01-26T13:32:52.955Z,94.94
2023-01-26T13:35:26.197Z,93.96
2023-01-26T13:37:52.653Z,94.29
2023-01-26T13:40:23.798Z,94.44
2023-01-26T13:42:58.308Z,93.73
2023-01-26T13:45:33.963Z,91.98
2023-01-26T13:48:04.584Z,93.22
2023-01-26T13:50:38.961Z,92.01
2023-01-26T13:53:29.664Z,92.91
2023-01-26T13:56:01.121Z,91.99
2023-01-26T13:58:27.751Z,91.33
2023-01-26T14:00:59.502Z,92.10
2023-01-26T14:03:26.636Z,90.29
2023-01-26T14:06:08.915Z,91.08
2023-01-26T14:08:37.555Z,91.93
2023-01-26T14:11:06.037Z,90.38
2023-01-26T14:13:36.740Z,89.79
2023-01-26T14:16:06.194Z,90.68
2023-01-26T14:18:33.087Z,89.85
2023-01-26T14:21:05.865Z,91.27
2023-01-26T14:23:35.871Z,91.56
2023-01-26T14:26:28.580Z,90.21
2023-01-26T14:28:55.137Z,90.79
2023-01-26T14:31:23.406Z,91.67
2023-01-26T14:33:53.159Z,89.99
2023-01-26T14:36:20.687Z,94.52
2023-01-26T14:38:49.437Z,95.91
2023-01-26T14:41:22.833Z,94.69
2023-01-26T14:43:53.328Z,94.89
2023-01-26T14:46:30.291Z,95.95
2023-01-26T14:49:06.040Z,96.94
2023-01-26T14:51:34.903Z,94.73
2023-01-26T14:54:10.863Z,94.61
2023-01-26T14:56:39.360Z,95.77
2023-01-26T14:59:08.413Z,95.84
2023-01-26T15:01:35.445Z,96.19
2023-01-26T15:04:22.891Z,97.21
2023-01-26T15:06:49.447Z,97.90
2023-01-26T15:09:28.722Z,98.47
2023-01-26T15:12:16.885Z,98.39
2023-01-26T15:14:46.349Z,99.63
2023-01-26T15:17:42.109Z,99.01
2023-01-26T15:20:14.382Z,100.00
2023-01-26T15:22:42.015Z,100.00
2023-01-26T15:25:08.461Z,100.00
2023-01-26T15:27:36.595Z,100.00
2023-01-26T15:30:06.480Z,100.00
2023-01-26T15:32:39.460Z,100.00
2023-01-26T15:35:30.529Z,100.00
2023-01-26T15:38:05.158Z,100.00
2023-01-26T15:40:32.145Z,100.00
2023-01-26T15:43:11.921Z,100.00
2023-01-26T15:46:01.337Z,100.00
2023-01-26T15:48:31.599Z,100.00
2023-01-26T15:50:58.225Z,100.00
2023-01-26T15:53:24.654Z,100.00
2023-01-26T15:55:56.292Z,100.00
2023-01-26T15:58:23.826Z,100.00
2023-01-26T16:00:51.273Z,100.00
2023-01-26T16:03:19.911Z,100.00
2023-01-26T16:05:50.091Z,100.00
2023-01-26T16:08:17.887Z,100.00
2023-01-26T16:10:44.992Z,100.00
2023-01-26T16:13:13.170Z,100.00
2023-01-26T16:15:47.714Z,100.00
2023-01-26T16:18:14.800Z,100.00
2023-01-26T16:20:43.630Z,100.00
2023-01-26T16:23:31.840Z,100.00
2023-01-26T16:25:58.362Z,100.00
2023-01-26T16:28:24.839Z,100.00
2023-01-26T16:30:51.419Z,100.00
2023-01-26T16:33:24.526Z,100.00
2023-01-26T16:35:51.053Z,100.00
2023-01-26T16:38:17.566Z,100.00
2023-01-26T16:40:47.289Z,100.00
2023-01-26T16:43:21.412Z,100.00
2023-01-26T16:45:49.736Z,100.00
2023-01-26T16:48:17.130Z,100.00
2023-01-26T16:50:44.701Z,100.00
2023-01-26T16:53:33.005Z,100.00
2023-01-26T16:55:59.711Z,100.00
2023-01-26T16:58:26.591Z,100.00
2023-01-26T17:00:54.647Z,100.00
2023-01-26T17:03:21.337Z,100.00
2023-01-26T17:05:47.813Z,100.00
2023-01-26T17:08:14.263Z,100.00
2023-01-26T17:10:52.042Z,100.00
2023-01-26T17:13:27.156Z,100.00
2023-01-26T17:15:55.928Z,100.00
2023-01-26T17:18:22.553Z,100.00
2023-01-26T17:20:49.031Z,100.00
2023-01-26T17:23:15.537Z,100.00
2023-01-26T17:25:42.159Z,100.00
2023-01-26T17:28:08.637Z,100.00
2023-01-26T17:30:35.247Z,100.00
2023-01-26T17:33:01.953Z,100.00
2023-01-26T17:35:28.454Z,100.00
2023-01-26T17:37:55.267Z,100.00
2023-01-26T17:40:21.829Z,100.00
2023-01-26T17:42:48.268Z,100.00
2023-01-26T17:45:14.971Z,100.00
2023-01-26T17:47:41.517Z,100.00
2023-01-26T17:50:08.578Z,100.00
2023-01-26T17:52:36.456Z,100.00
2023-01-26T17:55:05.966Z,100.00
2023-01-26T17:57:33.328Z,100.00
2023-01-26T17:59:59.881Z,100.00
2023-01-26T18:02:26.550Z,100.00
2023-01-26T18:04:53.106Z,100.00
2023-01-26T18:07:19.720Z,100.00
2023-01-26T18:09:46.370Z,100.00
2023-01-26T18:12:12.852Z,100.00
2023-01-26T18:14:39.367Z,100.00
2023-01-26T18:17:05.797Z,100.00
2023-01-26T18:19:32.294Z,100.00
2023-01-26T18:21:58.771Z,100.00
2023-01-26T18:24:25.447Z,100.00
2023-01-26T18:26:52.073Z,100.00
2023-01-26T18:29:18.540Z,100.00
2023-01-26T18:31:44.999Z,100.00
2023-01-26T18:34:11.838Z,100.00
2023-01-26T18:36:38.924Z,100.00
2023-01-26T18:39:08.351Z,100.00
2023-01-26T18:41:35.248Z,100.00
2023-01-26T18:44:03.607Z,100.00
2023-01-26T18:46:33.058Z,100.00
2023-01-26T18:49:03.475Z,100.00
2023-01-26T18:51:32.503Z,100.00
2023-01-26T18:53:59.315Z,100.00
2023-01-26T18:56:26.696Z,100.00
2023-01-26T18:58:54.019Z,100.00
2023-01-26T19:01:21.439Z,100.00
2023-01-26T19:03:53.940Z,100.00
2023-01-26T19:06:20.917Z,100.00
2023-01-26T19:08:58.320Z,100.00
2023-01-26T19:11:30.741Z,100.00
2023-01-26T19:13:58.070Z,100.00
2023-01-26T19:16:24.919Z,100.00
2023-01-26T19:18:52.196Z,100.00
2023-01-26T19:21:24.283Z,100.00
2023-01-26T19:23:52.559Z,100.00
2023-01-26T19:26:21.953Z,100.00
2023-01-26T19:28:51.003Z,100.00
2023-01-26T19:31:21.604Z,100.00
2023-01-26T19:33:57.160Z,100.00
2023-01-26T19:36:24.849Z,100.00
2023-01-26T19:38:51.728Z,100.00
2023-01-26T19:41:20.114Z,100.00
2023-01-26T19:43:47.122Z,100.00
2023-01-26T19:46:14.715Z,100.00
2023-01-26T19:48:41.369Z,100.00
2023-01-26T19:51:11.908Z,100.00
2023-01-26T19:53:41.249Z,100.00
2023-01-26T19:56:09.692Z,100.00
2023-01-26T19:58:36.548Z,100.00
2023-01-26T20:01:11.784Z,100.00
2023-01-26T20:03:39.259Z,100.00
2023-01-26T20:06:13.063Z,100.00
2023-01-26T20:08:39.585Z,100.00
2023-01-26T20:11:07.233Z,100.00
2023-01-26T20:13:34.583Z,100.00
2023-01-26T20:16:02.139Z,100.00
2023-01-26T20:18:28.612Z,100.00
2023-01-26T20:20:56.710Z,100.00
2023-01-26T20:23:24.773Z,100.00
2023-01-26T20:25:51.677Z,100.00
2023-01-26T20:28:18.937Z,100.00
2023-01-26T20:30:45.534Z,100.00
2023-01-26T20:33:12.423Z,100.00
2023-01-26T20:35:40.374Z,100.00
2023-01-26T20:38:06.838Z,100.00
2023-01-26T20:40:33.288Z,100.00
2023-01-26T20:42:59.786Z,100.00
2023-01-26T20:45:26.440Z,100.00
2023-01-26T20:47:53.142Z,100.00
2023-01-26T20:50:19.633Z,100.00
2023-01-26T20:52:46.611Z,100.00
2023-01-26T20:55:13.204Z,100.00
2023-01-26T20:57:39.974Z,100.00
2023-01-26T21:00:07.233Z,100.00
2023-01-26T21:02:33.814Z,100.00
2023-01-26T21:05:00.671Z,100.00
2023-01-26T21:07:28.551Z,100.00
2023-01-26T21:09:55.100Z,100.00
2023-01-26T21:12:21.556Z,100.00
2023-01-26T21:14:48.165Z,100.00
2023-01-26T21:17:15.658Z,100.00
2023-01-26T21:19:42.128Z,100.00
2023-01-26T21:22:08.573Z,100.00
2023-01-26T21:24:35.619Z,100.00
2023-01-26T21:27:02.690Z,100.00
2023-01-26T21:29:29.215Z,100.00
2023-01-26T21:31:55.838Z,100.00
2023-01-26T21:34:22.325Z,100.00
2023-01-26T21:36:48.754Z,100.00
2023-01-26T21:39:15.331Z,100.00
2023-01-26T21:41:56.917Z,100.00
2023-01-26T21:44:25.719Z,100.00
2023-01-26T21:46:55.216Z,100.00
2023-01-26T21:49:22.976Z,100.00
2023-01-26T21:52:08.475Z,100.00
2023-01-26T21:54:35.568Z,100.00
2023-01-26T21:57:03.781Z,100.00
2023-01-26T21:59:30.723Z,100.00
2023-01-26T22:01:58.388Z,100.00
2023-01-26T22:04:30.223Z,100.00
2023-01-26T22:06:57.018Z,100.00
2023-01-26T22:09:24.171Z,100.00
2023-01-26T22:11:51.361Z,100.00
2023-01-26T22:14:21.689Z,100.00
2023-01-26T22:16:48.927Z,100.00
2023-01-26T22:19:15.542Z,100.00
2023-01-26T22:21:41.996Z,100.00
2023-01-26T22:24:11.879Z,100.00
2023-01-26T22:26:39.688Z,100.00
2023-01-26T22:29:07.085Z,100.00
2023-01-26T22:31:33.976Z,100.00
2023-01-26T22:34:01.103Z,100.00
2023-01-26T22:36:28.394Z,100.00
2023-01-26T22:38:55.243Z,100.00
2023-01-26T22:41:24.738Z,100.00
2023-01-26T22:43:54.255Z,100.00
2023-01-26T22:46:22.606Z,100.00
2023-01-26T22:48:50.166Z,100.00
2023-01-26T22:51:22.666Z,100.00
2023-01-26T22:53:50.704Z,100.00
2023-01-26T22:56:18.589Z,100.00
2023-01-26T22:58:57.685Z,100.00
2023-01-26T23:01:27.490Z,100.00
2023-01-26T23:03:55.608Z,100.00
2023-01-26T23:06:22.494Z,100.00
2023-01-26T23:08:49.240Z,100.00
2023-01-26T23:11:19.962Z,100.00
2023-01-26T23:13:48.023Z,100.00
2023-01-26T23:16:15.280Z,100.00
2023-01-26T23:18:42.375Z,100.00
2023-01-26T23:21:09.867Z,100.00
2023-01-26T23:23:36.469Z,100.00
2023-01-26T23:26:03.403Z,100.00
2023-01-26T23:28:33.318Z,100.00
2023-01-26T23:31:01.011Z,100.00
2023-01-26T23:33:30.063Z,100.00
2023-01-26T23:35:57.000Z,100.00
2023-01-26T23:38:25.945Z,100.00
2023-01-26T23:40:52.829Z,100.00
2023-01-26T23:43:19.508Z,100.00
2023-01-26T23:45:47.240Z,100.00
2023-01-26T23:48:14.434Z,100.00
2023-01-26T23:50:41.312Z,100.00
2023-01-26T23:53:08.188Z,100.00
2023-01-26T23:55:35.330Z,100.00
2023-01-26T23:58:01.830Z,100.00
